createdAt,value
2018-08-06T00:00:21.927Z,24.20
2018-08-06T00:02:50.305Z,24.20
2018-08-06T00:05:18.836Z,24.20
2018-08-06T00:07:47.351Z,24.20
2018-08-06T00:10:17.316Z,24.20
2018-08-06T00:12:45.654Z,24.20
2018-08-06T00:15:14.766Z,24.20
2018-08-06T00:17:43.442Z,24.00
2018-08-06T00:20:12.916Z,23.70
2018-08-06T00:22:41.690Z,23.60
2018-08-06T00:25:11.417Z,23.50
2018-08-06T00:27:40.187Z,23.40
2018-08-06T00:30:10.655Z,23.40
2018-08-06T00:32:40.047Z,23.60
2018-08-06T00:35:08.711Z,23.80
2018-08-06T00:37:37.190Z,24.00
2018-08-06T00:40:07.504Z,24.10
2018-08-06T00:42:35.832Z,24.20
2018-08-06T00:45:04.966Z,24.20
2018-08-06T00:47:33.271Z,24.20
2018-08-06T00:50:01.573Z,24.30
2018-08-06T00:52:29.848Z,24.30
2018-08-06T00:54:58.150Z,24.40
2018-08-06T00:57:26.465Z,24.40
2018-08-06T00:59:54.766Z,24.40
2018-08-06T01:02:23.060Z,24.40
2018-08-06T01:04:51.360Z,24.40
2018-08-06T01:07:19.660Z,24.50
2018-08-06T01:09:47.994Z,24.50
2018-08-06T01:12:16.286Z,24.50
2018-08-06T01:14:44.578Z,24.50
2018-08-06T01:17:12.866Z,24.50
2018-08-06T01:19:41.260Z,24.50
2018-08-06T01:22:09.566Z,24.50
2018-08-06T01:24:37.855Z,24.60
2018-08-06T01:27:06.578Z,24.60
2018-08-06T01:29:34.883Z,24.60
2018-08-06T01:32:03.166Z,24.60
2018-08-06T01:34:31.541Z,24.60
2018-08-06T01:36:59.882Z,24.60
2018-08-06T01:39:28.195Z,24.60
2018-08-06T01:41:56.490Z,24.60
2018-08-06T01:44:24.799Z,24.60
2018-08-06T01:46:53.094Z,24.60
2018-08-06T01:49:21.387Z,24.60
2018-08-06T01:51:49.678Z,24.60
2018-08-06T01:54:17.967Z,24.70
2018-08-06T01:56:46.298Z,24.70
2018-08-06T01:59:14.662Z,24.60
2018-08-06T02:01:42.962Z,24.60
2018-08-06T02:04:11.315Z,24.60
2018-08-06T02:09:08.322Z,24.60
2018-08-06T02:11:36.778Z,24.70
2018-08-06T02:14:05.281Z,24.60
2018-08-06T02:16:33.627Z,24.60
2018-08-06T02:19:01.935Z,24.60
2018-08-06T02:21:30.283Z,24.60
2018-08-06T02:23:58.574Z,24.70
2018-08-06T02:26:26.894Z,24.70
2018-08-06T02:28:55.188Z,24.70
2018-08-06T02:33:51.566Z,24.70
2018-08-06T02:36:19.950Z,24.70
2018-08-06T02:38:48.260Z,24.70
2018-08-06T02:41:16.563Z,24.80
2018-08-06T02:43:44.895Z,24.80
2018-08-06T02:46:13.208Z,24.80
2018-08-06T02:48:41.501Z,24.80
2018-08-06T02:51:09.795Z,24.80
2018-08-06T02:53:38.193Z,24.80
2018-08-06T02:56:07.294Z,24.80
2018-08-06T02:58:35.609Z,24.80
2018-08-06T03:01:04.059Z,24.80
2018-08-06T03:03:32.374Z,24.80
2018-08-06T03:06:00.688Z,24.80
2018-08-06T03:08:29.006Z,24.80
2018-08-06T03:10:57.310Z,24.80
2018-08-06T03:13:25.659Z,24.80
2018-08-06T03:15:53.960Z,24.80
2018-08-06T03:18:22.291Z,24.80
2018-08-06T03:20:50.587Z,24.80
2018-08-06T03:23:18.930Z,24.80
2018-08-06T03:25:47.226Z,24.80
2018-08-06T03:28:15.554Z,24.80
2018-08-06T03:30:43.861Z,24.80
2018-08-06T03:33:12.179Z,24.80
2018-08-06T03:35:40.665Z,24.80
2018-08-06T03:38:08.946Z,24.80
2018-08-06T03:40:37.276Z,24.80
2018-08-06T03:43:05.614Z,24.80
2018-08-06T03:45:33.944Z,24.80
2018-08-06T03:48:02.271Z,24.80
2018-08-06T03:50:30.585Z,24.80
2018-08-06T03:52:58.934Z,24.80
2018-08-06T03:55:27.234Z,24.80
2018-08-06T03:57:55.543Z,24.70
2018-08-06T04:00:23.958Z,24.70
2018-08-06T04:02:52.314Z,24.80
2018-08-06T04:05:20.646Z,24.70
2018-08-06T04:07:48.992Z,24.70
2018-08-06T04:10:17.773Z,24.70
2018-08-06T04:12:46.339Z,24.70
2018-08-06T04:15:14.658Z,24.70
2018-08-06T04:17:43.576Z,24.70
2018-08-06T04:20:12.719Z,24.80
2018-08-06T04:22:41.809Z,24.70
2018-08-06T04:25:10.127Z,24.70
2018-08-06T04:32:35.946Z,24.70
2018-08-06T04:35:04.428Z,24.70
2018-08-06T04:37:32.718Z,24.70
2018-08-06T04:40:01.031Z,24.70
2018-08-06T04:42:29.507Z,24.70
2018-08-06T04:44:57.791Z,24.70
2018-08-06T04:47:26.087Z,24.70
2018-08-06T04:49:54.380Z,24.70
2018-08-06T04:52:22.682Z,24.70
2018-08-06T04:54:50.968Z,24.70
2018-08-06T04:57:19.286Z,24.70
2018-08-06T04:59:47.673Z,24.70
2018-08-06T05:02:15.895Z,24.70
2018-08-06T05:04:44.203Z,24.70
2018-08-06T05:07:12.632Z,24.70
2018-08-06T05:09:44.401Z,24.70
2018-08-06T05:12:12.706Z,24.70
2018-08-06T05:14:41.675Z,24.70
2018-08-06T05:17:09.963Z,24.70
2018-08-06T05:19:38.612Z,24.70
2018-08-06T05:22:07.404Z,24.70
2018-08-06T05:24:35.736Z,24.70
2018-08-06T05:27:04.022Z,24.70
2018-08-06T05:29:32.402Z,24.70
2018-08-06T05:32:00.719Z,24.60
2018-08-06T05:34:29.006Z,24.70
2018-08-06T05:36:57.302Z,24.70
2018-08-06T05:41:53.663Z,24.70
2018-08-06T05:44:21.973Z,24.70
2018-08-06T05:46:50.254Z,24.70
2018-08-06T05:49:18.566Z,24.70
2018-08-06T05:51:46.882Z,24.70
2018-08-06T05:54:15.189Z,24.70
2018-08-06T05:56:43.473Z,24.60
2018-08-06T05:59:11.782Z,24.50
2018-08-06T06:01:40.123Z,24.40
2018-08-06T06:04:08.459Z,24.30
2018-08-06T06:06:36.774Z,24.20
2018-08-06T06:09:07.835Z,24.20
2018-08-06T06:11:36.268Z,24.20
2018-08-06T06:14:05.115Z,24.20
2018-08-06T06:16:33.442Z,24.20
2018-08-06T06:19:01.808Z,24.20
2018-08-06T06:21:30.356Z,24.20
2018-08-06T06:23:58.698Z,24.20
2018-08-06T06:26:27.068Z,24.20
2018-08-06T06:28:55.389Z,24.20
2018-08-06T06:31:24.281Z,24.20
2018-08-06T06:33:52.947Z,24.30
2018-08-06T06:36:21.279Z,24.30
2018-08-06T06:38:49.754Z,24.40
2018-08-06T06:41:18.104Z,24.30
2018-08-06T06:43:46.403Z,24.40
2018-08-06T06:46:14.762Z,24.40
2018-08-06T06:48:43.092Z,24.40
2018-08-06T06:51:11.402Z,24.40
2018-08-06T06:53:39.754Z,24.50
2018-08-06T06:56:08.055Z,24.50
2018-08-06T06:58:36.364Z,24.50
2018-08-06T07:01:04.677Z,24.50
2018-08-06T07:03:32.971Z,24.50
2018-08-06T07:06:01.263Z,24.50
2018-08-06T07:08:29.580Z,24.60
2018-08-06T07:10:57.922Z,24.60
2018-08-06T07:13:26.218Z,24.50
2018-08-06T07:15:54.558Z,24.60
2018-08-06T07:18:22.942Z,24.60
2018-08-06T07:20:51.261Z,24.60
2018-08-06T07:23:19.559Z,24.60
2018-08-06T07:25:47.938Z,24.60
2018-08-06T07:28:16.260Z,24.70
2018-08-06T07:30:44.669Z,24.70
2018-08-06T07:33:12.974Z,24.70
2018-08-06T07:35:41.430Z,24.70
2018-08-06T07:38:09.715Z,24.80
2018-08-06T07:43:06.210Z,24.80
2018-08-06T07:45:34.472Z,24.80
2018-08-06T07:48:02.998Z,24.90
2018-08-06T07:52:59.331Z,24.90
2018-08-06T07:55:27.624Z,25.00
2018-08-06T07:57:55.930Z,25.00
2018-08-06T08:00:24.236Z,25.00
2018-08-06T08:02:52.558Z,25.00
2018-08-06T08:05:20.872Z,25.10
2018-08-06T08:07:49.303Z,25.10
2018-08-06T08:10:19.430Z,25.10
2018-08-06T08:12:47.734Z,25.10
2018-08-06T08:15:18.148Z,25.10
2018-08-06T08:17:47.330Z,25.10
2018-08-06T08:20:16.801Z,25.00
2018-08-06T08:22:45.095Z,25.10
2018-08-06T08:25:15.634Z,25.10
2018-08-06T08:27:44.308Z,25.10
2018-08-06T08:30:13.840Z,25.10
2018-08-06T08:32:42.190Z,25.10
2018-08-06T08:35:11.207Z,25.10
2018-08-06T08:37:39.551Z,25.10
2018-08-06T08:40:13.802Z,25.10
2018-08-06T08:42:42.183Z,25.10
2018-08-06T08:45:12.602Z,25.10
2018-08-06T08:47:41.711Z,25.10
2018-08-06T08:50:13.506Z,25.10
2018-08-06T08:52:42.298Z,25.10
2018-08-06T08:55:11.955Z,25.10
2018-08-06T08:57:40.253Z,25.10
2018-08-06T09:00:11.781Z,25.10
2018-08-06T09:02:40.139Z,25.10
2018-08-06T09:05:08.442Z,25.10
2018-08-06T09:07:37.710Z,25.10
2018-08-06T09:10:07.233Z,25.10
2018-08-06T09:12:35.609Z,25.20
2018-08-06T09:15:05.549Z,25.20
2018-08-06T09:17:33.851Z,25.20
2018-08-06T09:20:02.190Z,25.20
2018-08-06T09:22:30.490Z,25.20
2018-08-06T09:24:58.810Z,25.20
2018-08-06T09:27:27.114Z,25.20
2018-08-06T09:29:55.449Z,25.20
2018-08-06T09:32:23.765Z,25.20
2018-08-06T09:34:52.067Z,25.30
2018-08-06T09:37:20.365Z,25.20
2018-08-06T09:39:48.635Z,25.20
2018-08-06T09:42:16.959Z,25.30
2018-08-06T09:44:45.238Z,25.30
2018-08-06T09:47:13.547Z,25.30
2018-08-06T09:49:41.851Z,25.40
2018-08-06T09:52:10.153Z,25.30
2018-08-06T09:54:38.434Z,25.40
2018-08-06T09:57:06.896Z,25.30
2018-08-06T09:59:35.151Z,25.40
2018-08-06T10:02:03.434Z,25.40
2018-08-06T10:06:59.833Z,25.40
2018-08-06T10:09:28.158Z,25.40
2018-08-06T10:11:56.501Z,25.40
2018-08-06T10:14:24.763Z,25.40
2018-08-06T10:16:53.169Z,25.40
2018-08-06T10:19:21.526Z,25.40
2018-08-06T10:21:49.873Z,25.50
2018-08-06T10:24:18.189Z,25.40
2018-08-06T10:26:46.515Z,25.40
2018-08-06T10:29:14.819Z,25.50
2018-08-06T10:31:43.137Z,25.50
2018-08-06T10:34:11.458Z,25.50
2018-08-06T10:36:39.836Z,25.50
2018-08-06T10:39:09.902Z,25.50
2018-08-06T10:41:38.721Z,25.50
2018-08-06T10:44:07.059Z,25.50
2018-08-06T10:46:35.432Z,25.50
2018-08-06T10:49:03.743Z,25.50
2018-08-06T10:51:32.037Z,25.50
2018-08-06T10:54:00.422Z,25.50
2018-08-06T10:56:28.719Z,25.50
2018-08-06T10:58:57.050Z,25.50
2018-08-06T11:01:25.411Z,25.50
2018-08-06T11:03:53.718Z,25.50
2018-08-06T11:06:22.018Z,25.60
2018-08-06T11:08:50.368Z,25.60
2018-08-06T11:11:18.714Z,25.60
2018-08-06T11:13:47.414Z,25.60
2018-08-06T11:16:15.731Z,25.60
2018-08-06T11:18:44.123Z,25.60
2018-08-06T11:21:12.530Z,25.60
2018-08-06T11:23:40.831Z,25.60
2018-08-06T11:26:09.136Z,25.60
2018-08-06T11:31:05.485Z,25.60
2018-08-06T11:33:33.805Z,25.60
2018-08-06T11:36:02.116Z,25.60
2018-08-06T11:38:30.418Z,25.60
2018-08-06T11:40:58.742Z,25.60
2018-08-06T11:43:27.043Z,25.60
2018-08-06T11:45:55.395Z,25.60
2018-08-06T11:48:23.718Z,25.60
2018-08-06T11:50:52.047Z,25.60
2018-08-06T11:53:20.339Z,25.60
2018-08-06T11:55:48.653Z,25.60
2018-08-06T11:58:16.958Z,25.60
2018-08-06T12:00:45.258Z,25.70
2018-08-06T12:03:13.587Z,25.70
2018-08-06T12:05:41.887Z,25.70
2018-08-06T12:08:10.208Z,25.70
2018-08-06T12:10:38.498Z,25.70
2018-08-06T12:13:06.798Z,25.70
2018-08-06T12:15:35.122Z,25.70
2018-08-06T12:18:03.439Z,25.70
2018-08-06T12:20:31.791Z,25.80
2018-08-06T12:23:00.107Z,25.70
2018-08-06T12:25:28.410Z,25.80
2018-08-06T12:27:56.733Z,25.80
2018-08-06T12:30:25.057Z,25.80
2018-08-06T12:32:54.171Z,25.80
2018-08-06T12:35:22.486Z,25.80
2018-08-06T12:37:50.806Z,25.80
2018-08-06T12:40:21.379Z,25.80
2018-08-06T12:42:49.763Z,25.80
2018-08-06T12:45:18.434Z,25.80
2018-08-06T12:47:47.205Z,25.80
2018-08-06T12:52:44.650Z,25.80
2018-08-06T12:55:14.166Z,25.80
2018-08-06T12:57:43.150Z,25.80
2018-08-06T13:00:14.911Z,25.80
2018-08-06T13:02:43.206Z,25.80
2018-08-06T13:05:11.854Z,25.80
2018-08-06T13:07:40.478Z,25.80
2018-08-06T13:10:08.815Z,25.80
2018-08-06T13:12:38.340Z,25.80
2018-08-06T13:15:07.634Z,25.80
2018-08-06T13:17:35.951Z,25.80
2018-08-06T13:20:05.709Z,25.90
2018-08-06T13:22:34.004Z,25.90
2018-08-06T13:25:02.344Z,25.90
2018-08-06T13:27:31.172Z,25.90
2018-08-06T13:29:59.462Z,25.90
2018-08-06T13:32:27.771Z,25.90
2018-08-06T13:34:56.082Z,25.90
2018-08-06T13:37:24.399Z,26.00
2018-08-06T13:39:52.723Z,25.90
2018-08-06T13:42:21.120Z,26.00
2018-08-06T13:44:49.482Z,25.90
2018-08-06T13:47:17.810Z,25.90
2018-08-06T13:49:46.124Z,25.90
2018-08-06T13:52:14.467Z,26.00
2018-08-06T13:54:42.781Z,26.00
2018-08-06T13:57:11.086Z,26.00
2018-08-06T13:59:39.504Z,26.00
2018-08-06T14:02:07.714Z,26.00
2018-08-06T14:04:36.365Z,25.90
2018-08-06T14:07:04.735Z,26.00
2018-08-06T14:09:32.975Z,26.00
2018-08-06T14:12:01.279Z,26.00
2018-08-06T14:14:29.622Z,26.00
2018-08-06T14:16:58.089Z,26.00
2018-08-06T14:19:26.346Z,26.00
2018-08-06T14:24:22.742Z,26.00
2018-08-06T14:26:51.063Z,26.00
2018-08-06T14:29:19.495Z,26.00
2018-08-06T14:31:47.858Z,26.00
2018-08-06T14:34:16.254Z,26.00
2018-08-06T14:36:44.626Z,26.00
2018-08-06T14:39:13.307Z,26.00
2018-08-06T14:41:41.725Z,26.00
2018-08-06T14:44:10.448Z,26.00
2018-08-06T14:46:39.403Z,26.00
2018-08-06T14:49:08.511Z,26.00
2018-08-06T14:51:36.831Z,26.00
2018-08-06T14:54:05.192Z,26.00
2018-08-06T14:56:33.602Z,26.00
2018-08-06T14:59:01.889Z,26.00
2018-08-06T15:01:30.214Z,26.00
2018-08-06T15:03:58.506Z,26.00
2018-08-06T15:06:26.891Z,26.00
2018-08-06T15:08:55.185Z,26.00
2018-08-06T15:11:23.787Z,26.00
2018-08-06T15:13:52.296Z,26.00
2018-08-06T15:16:20.636Z,26.00
2018-08-06T15:18:48.932Z,25.90
2018-08-06T15:21:17.248Z,26.00
2018-08-06T15:23:45.658Z,26.00
2018-08-06T15:26:14.042Z,25.90
2018-08-06T15:28:42.347Z,26.00
2018-08-06T15:31:10.704Z,26.00
2018-08-06T15:33:39.018Z,26.00
2018-08-06T15:36:07.355Z,26.00
2018-08-06T15:38:36.043Z,26.00
2018-08-06T15:41:04.619Z,26.10
2018-08-06T15:43:33.011Z,26.10
2018-08-06T15:46:01.267Z,26.00
2018-08-06T15:48:29.659Z,26.10
2018-08-06T15:50:58.122Z,26.10
2018-08-06T15:53:26.439Z,26.10
2018-08-06T15:55:54.749Z,26.10
2018-08-06T15:58:23.074Z,26.10
2018-08-06T16:00:51.398Z,26.10
2018-08-06T16:03:19.870Z,26.10
2018-08-06T16:05:48.179Z,26.00
2018-08-06T16:08:16.500Z,26.10
2018-08-06T16:10:44.842Z,26.10
2018-08-06T16:13:13.234Z,26.10
2018-08-06T16:15:41.552Z,26.10
2018-08-06T16:18:09.933Z,26.10
2018-08-06T16:23:06.481Z,26.10
2018-08-06T16:25:34.804Z,26.10
2018-08-06T16:28:03.146Z,26.10
2018-08-06T16:30:31.462Z,26.10
2018-08-06T16:32:59.879Z,26.10
2018-08-06T16:35:28.178Z,26.10
2018-08-06T16:37:57.153Z,26.10
2018-08-06T16:42:53.598Z,26.10
2018-08-06T16:45:21.918Z,26.20
2018-08-06T16:47:50.428Z,26.20
2018-08-06T16:50:19.075Z,26.20
2018-08-06T16:52:47.556Z,26.20
2018-08-06T16:55:15.701Z,26.20
2018-08-06T16:57:44.001Z,26.20
2018-08-06T17:00:15.967Z,26.20
2018-08-06T17:02:44.636Z,26.30
2018-08-06T17:05:13.750Z,26.40
2018-08-06T17:07:43.146Z,26.40
2018-08-06T17:10:13.807Z,26.40
2018-08-06T17:12:43.286Z,26.40
2018-08-06T17:15:12.874Z,26.40
2018-08-06T17:17:41.355Z,26.40
2018-08-06T17:20:12.828Z,26.50
2018-08-06T17:22:41.406Z,26.50
2018-08-06T17:25:10.908Z,26.50
2018-08-06T17:27:39.924Z,26.40
2018-08-06T17:30:08.669Z,26.50
2018-08-06T17:32:37.900Z,26.50
2018-08-06T17:35:07.299Z,26.40
2018-08-06T17:37:35.676Z,26.40
2018-08-06T17:40:06.382Z,26.40
2018-08-06T17:42:34.706Z,26.30
2018-08-06T17:45:03.031Z,26.30
2018-08-06T17:47:31.346Z,26.30
2018-08-06T17:49:59.704Z,26.30
2018-08-06T17:52:28.018Z,26.40
2018-08-06T17:54:56.365Z,26.40
2018-08-06T17:57:24.669Z,26.30
2018-08-06T17:59:53.024Z,26.40
2018-08-06T18:02:21.367Z,26.40
2018-08-06T18:04:49.745Z,26.30
2018-08-06T18:07:18.114Z,26.30
2018-08-06T18:09:46.455Z,26.30
2018-08-06T18:12:14.789Z,26.30
2018-08-06T18:14:43.320Z,26.30
2018-08-06T18:17:11.636Z,26.30
2018-08-06T18:19:39.957Z,26.30
2018-08-06T18:22:08.294Z,26.30
2018-08-06T18:24:36.628Z,26.20
2018-08-06T18:27:05.482Z,26.30
2018-08-06T18:29:33.835Z,26.20
2018-08-06T18:32:02.502Z,26.20
2018-08-06T18:34:30.809Z,26.20
2018-08-06T18:36:59.200Z,26.20
2018-08-06T18:39:27.642Z,26.20
2018-08-06T18:41:56.015Z,26.20
2018-08-06T18:44:24.347Z,26.20
2018-08-06T18:49:21.043Z,26.10
2018-08-06T18:51:50.261Z,26.10
2018-08-06T18:54:19.198Z,26.10
2018-08-06T18:56:47.924Z,26.10
2018-08-06T18:59:16.648Z,26.00
2018-08-06T19:01:45.230Z,26.00
2018-08-06T19:04:14.297Z,25.90
2018-08-06T19:06:42.720Z,25.90
2018-08-06T19:09:16.439Z,25.90
2018-08-06T19:11:45.769Z,25.90
2018-08-06T19:14:21.234Z,25.90
2018-08-06T19:16:50.820Z,25.90
2018-08-06T19:19:26.440Z,25.90
2018-08-06T19:21:56.046Z,25.90
2018-08-06T19:24:29.890Z,25.90
2018-08-06T19:26:58.297Z,25.90
2018-08-06T19:29:26.761Z,25.90
2018-08-06T19:31:55.390Z,25.80
2018-08-06T19:34:23.930Z,25.80
2018-08-06T19:36:57.786Z,25.60
2018-08-06T19:39:26.453Z,25.60
2018-08-06T19:41:54.760Z,25.60
2018-08-06T19:44:23.072Z,25.60
2018-08-06T19:46:51.483Z,25.60
2018-08-06T19:49:25.139Z,25.60
2018-08-06T19:51:53.933Z,25.60
2018-08-06T19:54:22.320Z,25.50
2018-08-06T19:56:50.796Z,25.50
2018-08-06T19:59:19.155Z,25.30
2018-08-06T20:01:47.495Z,25.10
2018-08-06T20:04:15.843Z,25.20
2018-08-06T20:06:44.420Z,25.20
2018-08-06T20:09:14.311Z,25.20
2018-08-06T20:11:42.634Z,25.20
2018-08-06T20:16:39.553Z,25.10
2018-08-06T20:19:08.726Z,25.10
2018-08-06T20:21:37.025Z,25.10
2018-08-06T20:24:06.178Z,25.00
2018-08-06T20:26:34.593Z,25.00
2018-08-06T20:29:03.148Z,25.00
2018-08-06T20:31:31.530Z,25.00
2018-08-06T20:33:59.887Z,24.90
2018-08-06T20:36:28.222Z,24.80
2018-08-06T20:38:56.589Z,24.80
2018-08-06T20:41:24.913Z,24.80
2018-08-06T20:43:53.227Z,24.80
2018-08-06T20:46:21.563Z,24.80
2018-08-06T20:48:49.939Z,24.80
2018-08-06T20:51:18.380Z,24.80
2018-08-06T20:53:46.677Z,24.70
2018-08-06T20:56:14.962Z,24.60
2018-08-06T21:01:11.370Z,24.50
2018-08-06T21:03:39.690Z,24.40
2018-08-06T21:06:08.002Z,24.30
2018-08-06T21:08:36.307Z,24.20
2018-08-06T21:11:04.646Z,24.20
2018-08-06T21:13:32.960Z,24.20
2018-08-06T21:16:01.300Z,24.20
2018-08-06T21:18:29.672Z,24.10
2018-08-06T21:20:58.044Z,24.10
2018-08-06T21:23:26.376Z,24.10
2018-08-06T21:25:54.679Z,24.00
2018-08-06T21:30:51.198Z,24.00
2018-08-06T21:35:47.767Z,24.10
2018-08-06T21:38:16.089Z,24.00
2018-08-06T21:40:44.383Z,24.00
2018-08-06T21:43:12.725Z,24.00
2018-08-06T21:48:09.095Z,24.00
2018-08-06T21:50:37.475Z,24.00
2018-08-06T21:55:33.839Z,23.90
2018-08-06T21:58:02.224Z,23.90
2018-08-06T22:00:34.394Z,23.80
2018-08-06T22:03:04.164Z,23.80
2018-08-06T22:05:32.599Z,23.70
2018-08-06T22:08:01.182Z,23.80
2018-08-06T22:10:29.481Z,23.70
2018-08-06T22:12:57.786Z,23.70
2018-08-06T22:15:26.204Z,23.70
2018-08-06T22:17:54.599Z,23.70
2018-08-06T22:20:22.939Z,23.70
2018-08-06T22:22:51.533Z,23.70
2018-08-06T22:25:20.014Z,23.70
2018-08-06T22:27:50.222Z,23.60
2018-08-06T22:30:18.662Z,23.40
2018-08-06T22:32:47.085Z,23.30
2018-08-06T22:35:15.599Z,23.30
2018-08-06T22:37:44.010Z,23.30
2018-08-06T22:40:13.433Z,23.40
2018-08-06T22:42:42.196Z,23.40
2018-08-06T22:45:11.778Z,23.50
2018-08-06T22:47:41.554Z,23.70
2018-08-06T22:50:11.387Z,24.00
2018-08-06T22:52:40.190Z,24.20
2018-08-06T22:55:09.802Z,24.30
2018-08-06T22:57:38.126Z,24.40
2018-08-06T23:00:09.216Z,24.50
2018-08-06T23:02:37.526Z,24.50
2018-08-06T23:05:06.388Z,24.60
2018-08-06T23:07:34.772Z,24.60
2018-08-06T23:10:03.123Z,24.60
2018-08-06T23:12:31.438Z,24.60
2018-08-06T23:14:59.735Z,24.70
2018-08-06T23:17:28.088Z,24.70
2018-08-06T23:19:56.398Z,24.70
2018-08-06T23:22:24.764Z,24.80
2018-08-06T23:24:53.074Z,24.80
2018-08-06T23:27:21.369Z,24.80
2018-08-06T23:29:49.651Z,24.80
2018-08-06T23:32:17.943Z,24.80
2018-08-06T23:34:46.255Z,24.80
2018-08-06T23:37:14.555Z,24.80
2018-08-06T23:39:42.851Z,24.90
2018-08-06T23:42:11.143Z,24.90
2018-08-06T23:44:39.446Z,24.90
2018-08-06T23:47:07.741Z,24.90
2018-08-06T23:49:36.051Z,24.90
2018-08-06T23:52:04.430Z,24.90
2018-08-06T23:54:32.746Z,24.90
2018-08-06T23:57:01.200Z,24.90
2018-08-06T23:59:29.488Z,25.00
